KSUU

Travis AFB Airport

Fairfield, California, USA
METAR KSUU 181558Z AUTO 00000KT 10SM CLR 12/09 A3013 RMK AO2 SLP210 T01180090 $
Observed Flight Rules
Oct-18 @ 15:58 UTC (32 minutes ago) Visual Flight Rules
Visibility Clouds
10 miles
  • Clear skies
Temperatures Readings
Current 12°C / 54°F
Dewpoint 9°C / 48°F
Humidity 82%
Altimeter 30.13" Hg
Pressure 1021 hPa
Elevation 19
METAR KSUU 181558Z AUTO 00000KT 10SM CLR 12/09 A3013 RMK AO2 SLP210 T01180090 $
Observed Flight Rules
Oct-18 @ 15:58 UTC
(32 minutes ago)
VFR
Clouds
  • Clear skies
Temperature Dewpoint
12°C / 54°F 9°C / 48°F
Humidity Altimeter Pressure
82% 30.13" Hg 1021 hPa